Vernicos Master — SVA2352 — position and weather

sailwx.info

Track history (hours):
 
Tides and Currents Weather Stations Pressure Air Temp Water Temp Dewpoint Dewpoint Depression Visibility Wind Speed Wind Dir Waves Ship Positions

Vernicos Master

Last reported at 2015-Nov-02 12:27 UTC. Time now 2016-Feb-10 08:53 UTC.
Position N 38°21' E 023°47'.
Warning: this ship's position is months out of date.

Length 28 m; draft 3.8 m.

Type: Tug. MMSI: 240917000.

Date/timePositionNaut miles runAvg speedWind from/ knotsBaromVisibWave heightAir tempDewpointWater temp
2015-Nov-02 12:27N 38°21' E 023°47'19 9.2
2015-Nov-02 10:25N 38°11' E 024°07'7 7.0
2015-Nov-02 09:22N 38°04' E 024°09'28 5.5
2015-Nov-02 04:22N 37°38' E 023°56'8 9.8
2015-Nov-02 03:33N 37°43' E 023°48'1010.0
2015-Nov-02 02:33N 37°51' E 023°40'7 7.1
2015-Nov-02 01:33N 37°57' E 023°37'0 0.0
2015-Nov-02 00:33N 37°57' E 023°37'0 0.0
2015-Nov-01 23:33N 37°57' E 023°37'0 0.0
2015-Nov-01 22:32N 37°57' E 023°37'0 0.0
2015-Nov-01 21:33N 37°57' E 023°37'0 0.0
2015-Nov-01 20:33N 37°57' E 023°37'0 0.0
2015-Nov-01 19:33N 37°57' E 023°37'0 0.0
2015-Nov-01 18:33N 37°57' E 023°37'0 0.0
2015-Nov-01 17:33N 37°57' E 023°37'0 0.0
2015-Nov-01 16:32N 37°57' E 023°37'0 0.0
2015-Nov-01 15:32N 37°57' E 023°37'0 0.0
2015-Nov-01 14:33N 37°57' E 023°37'0 0.0
2015-Nov-01 13:33N 37°57' E 023°37'0 0.0
2015-Nov-01 12:33N 37°57' E 023°37'0 0.0
2015-Nov-01 11:33N 37°57' E 023°37'0 0.0
2015-Nov-01 10:33N 37°57' E 023°37'0 0.0
2015-Nov-01 09:30N 37°57' E 023°37'0 0.0
2015-Nov-01 08:33N 37°57' E 023°37'0 0.0
2015-Nov-01 07:33N 37°57' E 023°37'0 0.0
2015-Nov-01 06:33N 37°57' E 023°37'0 0.0
2015-Nov-01 05:34N 37°57' E 023°37'0 0.0
2015-Nov-01 04:33N 37°57' E 023°37'0 0.0
2015-Nov-01 03:33N 37°57' E 023°37'0 0.0
2015-Nov-01 02:33N 37°57' E 023°37'0 0.0
2015-Nov-01 01:33N 37°57' E 023°37'0 0.0
2015-Nov-01 00:33N 37°57' E 023°37'0 0.0
2015-Oct-31 23:33N 37°57' E 023°37'0 0.0
2015-Oct-31 22:33N 37°57' E 023°37'0 0.0
2015-Oct-31 21:33N 37°57' E 023°37'0 0.0
2015-Oct-31 20:33N 37°57' E 023°37'0 0.0
2015-Oct-31 19:31N 37°57' E 023°37'0 0.0
2015-Oct-31 18:33N 37°57' E 023°37'0 0.0
2015-Oct-31 17:33N 37°57' E 023°37'0 0.0
2015-Oct-31 16:33N 37°57' E 023°37'0 0.1
2015-Oct-31 15:32N 37°57' E 023°36'2 2.1
2015-Oct-31 14:33N 37°58' E 023°34'2 2.2
2015-Oct-31 13:32N 37°57' E 023°37'0 0.0
2015-Oct-31 12:32N 37°57' E 023°37'0 0.0
2015-Oct-31 11:24N 37°57' E 023°37'0 0.0
2015-Oct-31 10:31N 37°57' E 023°37'0 0.0
2015-Oct-31 09:29N 37°57' E 023°37'0 0.0
2015-Oct-31 08:33N 37°57' E 023°37'0 0.0
2015-Oct-31 07:32N 37°57' E 023°37'0 0.0
2015-Oct-31 06:33N 37°57' E 023°37'0 0.0
2015-Oct-31 05:33N 37°57' E 023°37'0 0.0
2015-Oct-31 04:33N 37°57' E 023°37'0 0.0
2015-Oct-31 03:33N 37°57' E 023°37'0 0.0
2015-Oct-31 02:33N 37°57' E 023°37'0 0.0
2015-Oct-31 01:32N 37°57' E 023°37'0 0.0
2015-Oct-31 00:33N 37°57' E 023°37'0 0.0
2015-Oct-30 23:33N 37°57' E 023°37'0 0.0
2015-Oct-30 22:33N 37°57' E 023°37'0 0.0
2015-Oct-30 21:33N 37°57' E 023°37'0 0.0
2015-Oct-30 20:33N 37°57' E 023°37'0 0.0
2015-Oct-30 19:33N 37°57' E 023°37'0 0.0
2015-Oct-30 18:33N 37°57' E 023°37'0 0.0
2015-Oct-30 17:33N 37°57' E 023°37'0 0.0
2015-Oct-30 16:33N 37°57' E 023°37'0 0.0
2015-Oct-30 15:33N 37°57' E 023°37'0 0.0
2015-Oct-30 14:33N 37°57' E 023°37'0 0.0
2015-Oct-30 13:33N 37°57' E 023°37'0 0.0
2015-Oct-30 12:32N 37°57' E 023°37'0 0.0
2015-Oct-30 11:33N 37°57' E 023°37'2 1.8
2015-Oct-30 10:34N 37°58' E 023°34'0 0.0
2015-Oct-30 09:33N 37°58' E 023°34'0 0.0
2015-Oct-30 06:33N 37°58' E 023°34'0 0.0
2015-Oct-30 05:34N 37°58' E 023°34'0 0.0
2015-Oct-30 04:33N 37°58' E 023°34'0 0.0
2015-Oct-30 03:33N 37°58' E 023°34'0 0.0
2015-Oct-30 02:33N 37°58' E 023°34'0 0.0
2015-Oct-30 01:34N 37°58' E 023°34'0 0.0
2015-Oct-30 00:34N 37°58' E 023°34'0 0.0
2015-Oct-29 23:34N 37°58' E 023°34'0 0.0
2015-Oct-29 22:33N 37°58' E 023°34'0 0.0
2015-Oct-29 21:33N 37°58' E 023°34'0 0.0
2015-Oct-29 20:33N 37°58' E 023°34'0 0.0
2015-Oct-29 19:33N 37°58' E 023°34'0 0.0
2015-Oct-29 18:34N 37°58' E 023°34'0 0.0
2015-Oct-29 17:33N 37°58' E 023°34'0 0.0
2015-Oct-29 16:34N 37°58' E 023°34'0 0.0
2015-Oct-29 15:33N 37°58' E 023°34'0 0.0
2015-Oct-29 14:33N 37°58' E 023°34'0 0.0
2015-Oct-29 13:33N 37°58' E 023°34'0 0.0
2015-Oct-29 12:33N 37°58' E 023°34'0 0.0
2015-Oct-29 11:33N 37°58' E 023°34'0 0.0
2015-Oct-29 10:33N 37°58' E 023°34'0 0.0
2015-Oct-29 09:33N 37°58' E 023°34'0 0.0
2015-Oct-29 08:34N 37°58' E 023°34'0 0.0
2015-Oct-29 07:33N 37°58' E 023°34'0 0.0
2015-Oct-29 06:33N 37°58' E 023°34'0 0.0
2015-Oct-29 05:33N 37°58' E 023°34'0 0.0
2015-Oct-29 04:33N 37°58' E 023°34'0 0.0
2015-Oct-29 03:34N 37°58' E 023°34'0 0.0
2015-Oct-29 02:33N 37°58' E 023°34'0 0.0
2015-Oct-29 01:34N 37°58' E 023°34'0 0.0
2015-Oct-29 00:34N 37°58' E 023°34'0 0.0
2015-Oct-28 23:33N 37°58' E 023°34'0 0.0
2015-Oct-28 22:33N 37°58' E 023°34'0 0.0
2015-Oct-28 21:33N 37°58' E 023°34'0 0.0
2015-Oct-28 20:33N 37°58' E 023°34'0 0.0
2015-Oct-28 19:33N 37°58' E 023°34'0 0.0
2015-Oct-28 18:34N 37°58' E 023°34'0 0.0
2015-Oct-28 17:33N 37°58' E 023°34'0 0.0
2015-Oct-28 16:33N 37°58' E 023°34'0 0.0
2015-Oct-28 15:33N 37°58' E 023°34'0 0.0
2015-Oct-28 14:33N 37°58' E 023°34'0 0.0
2015-Oct-28 13:33N 37°58' E 023°34'0 0.0
2015-Oct-28 12:33N 37°58' E 023°34'0 0.0
2015-Oct-28 11:33N 37°58' E 023°34'0 0.0
2015-Oct-28 10:33N 37°58' E 023°34'0 0.0
2015-Oct-28 09:33N 37°58' E 023°34'0 0.0
2015-Oct-28 08:33N 37°58' E 023°34'0 0.0
2015-Oct-28 07:33N 37°58' E 023°34'0 0.0
2015-Oct-28 06:33N 37°58' E 023°34'0 0.0
2015-Oct-28 05:33N 37°58' E 023°34'0 0.0
2015-Oct-28 04:33N 37°58' E 023°34'0 0.0
2015-Oct-28 03:33N 37°58' E 023°34'0 0.0
2015-Oct-28 02:33N 37°58' E 023°34'0 0.0
2015-Oct-28 01:33N 37°58' E 023°34'0 0.0
2015-Oct-28 00:34N 37°58' E 023°34'0 0.0
2015-Oct-27 23:33N 37°58' E 023°34'0 0.0
2015-Oct-27 22:33N 37°58' E 023°34'0 0.0
2015-Oct-27 21:33N 37°58' E 023°34'0 0.0
2015-Oct-27 20:34N 37°58' E 023°34'0 0.0
2015-Oct-27 19:33N 37°58' E 023°34'0 0.0
2015-Oct-27 18:33N 37°58' E 023°34'0 0.0
2015-Oct-27 17:33N 37°58' E 023°34'0 0.0
2015-Oct-27 16:33N 37°58' E 023°34'0 0.0
2015-Oct-27 15:34N 37°58' E 023°34'0 0.0
2015-Oct-27 14:33N 37°58' E 023°34'0 0.0
2015-Oct-27 13:33N 37°58' E 023°34'0 0.0
2015-Oct-27 12:33N 37°58' E 023°34'0 0.0
2015-Oct-27 11:33N 37°58' E 023°34'0 0.0
2015-Oct-27 10:34N 37°58' E 023°34'0 0.0
2015-Oct-27 09:33N 37°58' E 023°34'0 0.0
2015-Oct-27 08:33N 37°58' E 023°34'0 0.0
2015-Oct-27 07:33N 37°58' E 023°34'0 0.0
2015-Oct-27 06:33N 37°58' E 023°34'0 0.0
2015-Oct-27 05:33N 37°58' E 023°34'0 0.0
2015-Oct-27 04:34N 37°58' E 023°34'0 0.0
2015-Oct-27 03:33N 37°58' E 023°34'0 0.0
2015-Oct-27 02:33N 37°58' E 023°34'0 0.0
2015-Oct-27 01:33N 37°58' E 023°34'0 0.0
2015-Oct-27 00:34N 37°58' E 023°34'0 0.0
2015-Oct-26 23:34N 37°58' E 023°34'0 0.0
2015-Oct-26 22:33N 37°58' E 023°34'0 0.0
2015-Oct-26 21:33N 37°58' E 023°34'0 0.0
2015-Oct-26 20:33N 37°58' E 023°34'0 0.0
2015-Oct-26 19:34N 37°58' E 023°34'0 0.0
2015-Oct-26 18:33N 37°58' E 023°34'0 0.0
2015-Oct-26 17:34N 37°58' E 023°34'0 0.0
2015-Oct-26 16:33N 37°58' E 023°34'0 0.0
2015-Oct-26 15:33N 37°58' E 023°34'0 0.0
2015-Oct-26 14:33N 37°58' E 023°34'0 0.0
2015-Oct-26 13:34N 37°58' E 023°34'0 0.0
2015-Oct-26 12:33N 37°58' E 023°34'0 0.0
2015-Oct-26 11:33N 37°58' E 023°34'0 0.0
2015-Oct-26 10:33N 37°58' E 023°34'0 0.0
2015-Oct-26 09:34N 37°58' E 023°34'0 0.0
2015-Oct-26 08:33N 37°58' E 023°34'0 0.0
2015-Oct-26 07:33N 37°58' E 023°34'0 0.0
2015-Oct-26 06:33N 37°58' E 023°34'0 0.0
2015-Oct-26 05:33N 37°58' E 023°34'0 0.0
2015-Oct-26 04:33N 37°58' E 023°34'0 0.0
2015-Oct-26 03:33N 37°58' E 023°34'0 0.0
2015-Oct-26 02:33N 37°58' E 023°34'0 0.0
2015-Oct-26 01:34N 37°58' E 023°34'0 0.0
2015-Oct-26 00:34N 37°58' E 023°34'0 0.0
2015-Oct-25 23:33N 37°58' E 023°34'0 0.0
2015-Oct-25 22:33N 37°58' E 023°34'0 0.0
2015-Oct-25 21:33N 37°58' E 023°34'0 0.0
2015-Oct-25 20:33N 37°58' E 023°34'0 0.0
2015-Oct-25 19:33N 37°58' E 023°34'0 0.0
2015-Oct-25 18:33N 37°58' E 023°34'0 0.0
2015-Oct-25 17:33N 37°58' E 023°34'0 0.0
2015-Oct-25 16:34N 37°58' E 023°34'0 0.0
2015-Oct-25 15:33N 37°58' E 023°34'0 0.0
2015-Oct-25 14:33N 37°58' E 023°34'0 0.0
2015-Oct-25 13:34N 37°58' E 023°34'0 0.0
2015-Oct-25 12:33N 37°58' E 023°34'0 0.0
2015-Oct-25 11:33N 37°58' E 023°34'0 0.0
2015-Oct-25 10:33N 37°58' E 023°34'0 0.0
2015-Oct-25 09:33N 37°58' E 023°34'0 0.0
2015-Oct-25 08:33N 37°58' E 023°34'0 0.0
2015-Oct-25 07:33N 37°58' E 023°34'0 0.0
2015-Oct-25 06:33N 37°58' E 023°34'0 0.0
2015-Oct-25 05:33N 37°58' E 023°34'0 0.0
2015-Oct-25 04:33N 37°58' E 023°34'0 0.0
2015-Oct-25 03:33N 37°58' E 023°34'0 0.0
2015-Oct-25 02:33N 37°58' E 023°34'0 0.0
2015-Oct-25 01:33N 37°58' E 023°34'0 0.0
2015-Oct-25 00:33N 37°58' E 023°34'0 0.0
2015-Oct-24 23:33N 37°58' E 023°34'0 0.0
2015-Oct-24 22:33N 37°58' E 023°34'0 0.0
2015-Oct-24 21:33N 37°58' E 023°34'0 0.0
2015-Oct-24 20:33N 37°58' E 023°34'0 0.0
2015-Oct-24 19:33N 37°58' E 023°34'0 0.0
2015-Oct-24 18:33N 37°58' E 023°34'0 0.0
2015-Oct-24 17:33N 37°58' E 023°34'0 0.0
2015-Oct-24 16:33N 37°58' E 023°34'0 0.0
2015-Oct-24 15:33N 37°58' E 023°34'0 0.0
2015-Oct-24 14:33N 37°58' E 023°34'0 0.0
2015-Oct-24 13:33N 37°58' E 023°34'0 0.0
2015-Oct-24 12:33N 37°58' E 023°34'0 0.0
2015-Oct-24 11:33N 37°58' E 023°34'0 0.0
2015-Oct-24 10:33N 37°58' E 023°34'0 0.0
2015-Oct-24 09:33N 37°58' E 023°34'0 0.0
2015-Oct-24 08:33N 37°58' E 023°34'0 0.0
2015-Oct-24 07:34N 37°58' E 023°34'0 0.0
2015-Oct-24 06:33N 37°58' E 023°34'0 0.0
2015-Oct-24 05:33N 37°58' E 023°34'0 0.0
2015-Oct-24 04:33N 37°58' E 023°34'0 0.0
2015-Oct-24 03:33N 37°58' E 023°34'0 0.0
2015-Oct-24 02:33N 37°58' E 023°34'0 0.0
2015-Oct-24 01:33N 37°58' E 023°34'0 0.0
2015-Oct-24 00:33N 37°58' E 023°34'0 0.0
2015-Oct-23 23:33N 37°58' E 023°34'0 0.0
2015-Oct-23 22:34N 37°58' E 023°34'0 0.0
2015-Oct-23 21:33N 37°58' E 023°34'0 0.0
2015-Oct-23 20:33N 37°58' E 023°34'0 0.0
2015-Oct-23 19:33N 37°58' E 023°34'0 0.0
2015-Oct-23 18:33N 37°58' E 023°34'0 0.0
2015-Oct-23 17:33N 37°58' E 023°34'0 0.0
2015-Oct-23 16:33N 37°58' E 023°34'0 0.0
2015-Oct-23 15:33N 37°58' E 023°34'0 0.0
2015-Oct-23 14:33N 37°58' E 023°34'0 0.0
2015-Oct-23 13:33N 37°58' E 023°34'0 0.0
2015-Oct-23 12:33N 37°58' E 023°34'  
Track history (hours):
 
Tides and Currents Weather Stations Pressure Air Temp Water Temp Dewpoint Dewpoint Depression Visibility Wind Speed Wind Dir Waves Ship Positions

Vernicos Master

Last reported at 2015-Nov-02 12:27 UTC. Time now 2016-Feb-10 08:53 UTC.
Position N 38°21' E 023°47'.
Warning: this ship's position is months out of date.

Length 28 m; draft 3.8 m.

Type: Tug. MMSI: 240917000.

Date/timePositionNaut miles runAvg speedWind from/ knotsBaromVisibWave heightAir tempDewpointWater temp
2015-Nov-02 12:27N 38°21' E 023°47'19 9.2
2015-Nov-02 10:25N 38°11' E 024°07'7 7.0
2015-Nov-02 09:22N 38°04' E 024°09'28 5.5
2015-Nov-02 04:22N 37°38' E 023°56'8 9.8
2015-Nov-02 03:33N 37°43' E 023°48'1010.0
2015-Nov-02 02:33N 37°51' E 023°40'7 7.1
2015-Nov-02 01:33N 37°57' E 023°37'0 0.0
2015-Nov-02 00:33N 37°57' E 023°37'0 0.0
2015-Nov-01 23:33N 37°57' E 023°37'0 0.0
2015-Nov-01 22:32N 37°57' E 023°37'0 0.0
2015-Nov-01 21:33N 37°57' E 023°37'0 0.0
2015-Nov-01 20:33N 37°57' E 023°37'0 0.0
2015-Nov-01 19:33N 37°57' E 023°37'0 0.0
2015-Nov-01 18:33N 37°57' E 023°37'0 0.0
2015-Nov-01 17:33N 37°57' E 023°37'0 0.0
2015-Nov-01 16:32N 37°57' E 023°37'0 0.0
2015-Nov-01 15:32N 37°57' E 023°37'0 0.0
2015-Nov-01 14:33N 37°57' E 023°37'0 0.0
2015-Nov-01 13:33N 37°57' E 023°37'0 0.0
2015-Nov-01 12:33N 37°57' E 023°37'0 0.0
2015-Nov-01 11:33N 37°57' E 023°37'0 0.0
2015-Nov-01 10:33N 37°57' E 023°37'0 0.0
2015-Nov-01 09:30N 37°57' E 023°37'0 0.0
2015-Nov-01 08:33N 37°57' E 023°37'0 0.0
2015-Nov-01 07:33N 37°57' E 023°37'0 0.0
2015-Nov-01 06:33N 37°57' E 023°37'0 0.0
2015-Nov-01 05:34N 37°57' E 023°37'0 0.0
2015-Nov-01 04:33N 37°57' E 023°37'0 0.0
2015-Nov-01 03:33N 37°57' E 023°37'0 0.0
2015-Nov-01 02:33N 37°57' E 023°37'0 0.0
2015-Nov-01 01:33N 37°57' E 023°37'0 0.0
2015-Nov-01 00:33N 37°57' E 023°37'0 0.0
2015-Oct-31 23:33N 37°57' E 023°37'0 0.0
2015-Oct-31 22:33N 37°57' E 023°37'0 0.0
2015-Oct-31 21:33N 37°57' E 023°37'0 0.0
2015-Oct-31 20:33N 37°57' E 023°37'0 0.0
2015-Oct-31 19:31N 37°57' E 023°37'0 0.0
2015-Oct-31 18:33N 37°57' E 023°37'0 0.0
2015-Oct-31 17:33N 37°57' E 023°37'0 0.0
2015-Oct-31 16:33N 37°57' E 023°37'0 0.1
2015-Oct-31 15:32N 37°57' E 023°36'2 2.1
2015-Oct-31 14:33N 37°58' E 023°34'2 2.2
2015-Oct-31 13:32N 37°57' E 023°37'0 0.0
2015-Oct-31 12:32N 37°57' E 023°37'0 0.0
2015-Oct-31 11:24N 37°57' E 023°37'0 0.0
2015-Oct-31 10:31N 37°57' E 023°37'0 0.0
2015-Oct-31 09:29N 37°57' E 023°37'0 0.0
2015-Oct-31 08:33N 37°57' E 023°37'0 0.0
2015-Oct-31 07:32N 37°57' E 023°37'0 0.0
2015-Oct-31 06:33N 37°57' E 023°37'0 0.0
2015-Oct-31 05:33N 37°57' E 023°37'0 0.0
2015-Oct-31 04:33N 37°57' E 023°37'0 0.0
2015-Oct-31 03:33N 37°57' E 023°37'0 0.0
2015-Oct-31 02:33N 37°57' E 023°37'0 0.0
2015-Oct-31 01:32N 37°57' E 023°37'0 0.0
2015-Oct-31 00:33N 37°57' E 023°37'0 0.0
2015-Oct-30 23:33N 37°57' E 023°37'0 0.0
2015-Oct-30 22:33N 37°57' E 023°37'0 0.0
2015-Oct-30 21:33N 37°57' E 023°37'0 0.0
2015-Oct-30 20:33N 37°57' E 023°37'0 0.0
2015-Oct-30 19:33N 37°57' E 023°37'0 0.0
2015-Oct-30 18:33N 37°57' E 023°37'0 0.0
2015-Oct-30 17:33N 37°57' E 023°37'0 0.0
2015-Oct-30 16:33N 37°57' E 023°37'0 0.0
2015-Oct-30 15:33N 37°57' E 023°37'0 0.0
2015-Oct-30 14:33N 37°57' E 023°37'0 0.0
2015-Oct-30 13:33N 37°57' E 023°37'0 0.0
2015-Oct-30 12:32N 37°57' E 023°37'0 0.0
2015-Oct-30 11:33N 37°57' E 023°37'2 1.8
2015-Oct-30 10:34N 37°58' E 023°34'0 0.0
2015-Oct-30 09:33N 37°58' E 023°34'0 0.0
2015-Oct-30 06:33N 37°58' E 023°34'0 0.0
2015-Oct-30 05:34N 37°58' E 023°34'0 0.0
2015-Oct-30 04:33N 37°58' E 023°34'0 0.0
2015-Oct-30 03:33N 37°58' E 023°34'0 0.0
2015-Oct-30 02:33N 37°58' E 023°34'0 0.0
2015-Oct-30 01:34N 37°58' E 023°34'0 0.0
2015-Oct-30 00:34N 37°58' E 023°34'0 0.0
2015-Oct-29 23:34N 37°58' E 023°34'0 0.0
2015-Oct-29 22:33N 37°58' E 023°34'0 0.0
2015-Oct-29 21:33N 37°58' E 023°34'0 0.0
2015-Oct-29 20:33N 37°58' E 023°34'0 0.0
2015-Oct-29 19:33N 37°58' E 023°34'0 0.0
2015-Oct-29 18:34N 37°58' E 023°34'0 0.0
2015-Oct-29 17:33N 37°58' E 023°34'0 0.0
2015-Oct-29 16:34N 37°58' E 023°34'0 0.0
2015-Oct-29 15:33N 37°58' E 023°34'0 0.0
2015-Oct-29 14:33N 37°58' E 023°34'0 0.0
2015-Oct-29 13:33N 37°58' E 023°34'0 0.0
2015-Oct-29 12:33N 37°58' E 023°34'0 0.0
2015-Oct-29 11:33N 37°58' E 023°34'0 0.0
2015-Oct-29 10:33N 37°58' E 023°34'0 0.0
2015-Oct-29 09:33N 37°58' E 023°34'0 0.0
2015-Oct-29 08:34N 37°58' E 023°34'0 0.0
2015-Oct-29 07:33N 37°58' E 023°34'0 0.0
2015-Oct-29 06:33N 37°58' E 023°34'0 0.0
2015-Oct-29 05:33N 37°58' E 023°34'0 0.0
2015-Oct-29 04:33N 37°58' E 023°34'0 0.0
2015-Oct-29 03:34N 37°58' E 023°34'0 0.0
2015-Oct-29 02:33N 37°58' E 023°34'0 0.0
2015-Oct-29 01:34N 37°58' E 023°34'0 0.0
2015-Oct-29 00:34N 37°58' E 023°34'0 0.0
2015-Oct-28 23:33N 37°58' E 023°34'0 0.0
2015-Oct-28 22:33N 37°58' E 023°34'0 0.0
2015-Oct-28 21:33N 37°58' E 023°34'0 0.0
2015-Oct-28 20:33N 37°58' E 023°34'0 0.0
2015-Oct-28 19:33N 37°58' E 023°34'0 0.0
2015-Oct-28 18:34N 37°58' E 023°34'0 0.0
2015-Oct-28 17:33N 37°58' E 023°34'0 0.0
2015-Oct-28 16:33N 37°58' E 023°34'0 0.0
2015-Oct-28 15:33N 37°58' E 023°34'0 0.0
2015-Oct-28 14:33N 37°58' E 023°34'0 0.0
2015-Oct-28 13:33N 37°58' E 023°34'0 0.0
2015-Oct-28 12:33N 37°58' E 023°34'0 0.0
2015-Oct-28 11:33N 37°58' E 023°34'0 0.0
2015-Oct-28 10:33N 37°58' E 023°34'0 0.0
2015-Oct-28 09:33N 37°58' E 023°34'0 0.0
2015-Oct-28 08:33N 37°58' E 023°34'0 0.0
2015-Oct-28 07:33N 37°58' E 023°34'0 0.0
2015-Oct-28 06:33N 37°58' E 023°34'0 0.0
2015-Oct-28 05:33N 37°58' E 023°34'0 0.0
2015-Oct-28 04:33N 37°58' E 023°34'0 0.0
2015-Oct-28 03:33N 37°58' E 023°34'0 0.0
2015-Oct-28 02:33N 37°58' E 023°34'0 0.0
2015-Oct-28 01:33N 37°58' E 023°34'0 0.0
2015-Oct-28 00:34N 37°58' E 023°34'0 0.0
2015-Oct-27 23:33N 37°58' E 023°34'0 0.0
2015-Oct-27 22:33N 37°58' E 023°34'0 0.0
2015-Oct-27 21:33N 37°58' E 023°34'0 0.0
2015-Oct-27 20:34N 37°58' E 023°34'0 0.0
2015-Oct-27 19:33N 37°58' E 023°34'0 0.0
2015-Oct-27 18:33N 37°58' E 023°34'0 0.0
2015-Oct-27 17:33N 37°58' E 023°34'0 0.0
2015-Oct-27 16:33N 37°58' E 023°34'0 0.0
2015-Oct-27 15:34N 37°58' E 023°34'0 0.0
2015-Oct-27 14:33N 37°58' E 023°34'0 0.0
2015-Oct-27 13:33N 37°58' E 023°34'0 0.0
2015-Oct-27 12:33N 37°58' E 023°34'0 0.0
2015-Oct-27 11:33N 37°58' E 023°34'0 0.0
2015-Oct-27 10:34N 37°58' E 023°34'0 0.0
2015-Oct-27 09:33N 37°58' E 023°34'0 0.0
2015-Oct-27 08:33N 37°58' E 023°34'0 0.0
2015-Oct-27 07:33N 37°58' E 023°34'0 0.0
2015-Oct-27 06:33N 37°58' E 023°34'0 0.0
2015-Oct-27 05:33N 37°58' E 023°34'0 0.0
2015-Oct-27 04:34N 37°58' E 023°34'0 0.0
2015-Oct-27 03:33N 37°58' E 023°34'0 0.0
2015-Oct-27 02:33N 37°58' E 023°34'0 0.0
2015-Oct-27 01:33N 37°58' E 023°34'0 0.0
2015-Oct-27 00:34N 37°58' E 023°34'0 0.0
2015-Oct-26 23:34N 37°58' E 023°34'0 0.0
2015-Oct-26 22:33N 37°58' E 023°34'0 0.0
2015-Oct-26 21:33N 37°58' E 023°34'0 0.0
2015-Oct-26 20:33N 37°58' E 023°34'0 0.0
2015-Oct-26 19:34N 37°58' E 023°34'0 0.0
2015-Oct-26 18:33N 37°58' E 023°34'0 0.0
2015-Oct-26 17:34N 37°58' E 023°34'0 0.0
2015-Oct-26 16:33N 37°58' E 023°34'0 0.0
2015-Oct-26 15:33N 37°58' E 023°34'0 0.0
2015-Oct-26 14:33N 37°58' E 023°34'0 0.0
2015-Oct-26 13:34N 37°58' E 023°34'0 0.0
2015-Oct-26 12:33N 37°58' E 023°34'0 0.0
2015-Oct-26 11:33N 37°58' E 023°34'0 0.0
2015-Oct-26 10:33N 37°58' E 023°34'0 0.0
2015-Oct-26 09:34N 37°58' E 023°34'0 0.0
2015-Oct-26 08:33N 37°58' E 023°34'0 0.0
2015-Oct-26 07:33N 37°58' E 023°34'0 0.0
2015-Oct-26 06:33N 37°58' E 023°34'0 0.0
2015-Oct-26 05:33N 37°58' E 023°34'0 0.0
2015-Oct-26 04:33N 37°58' E 023°34'0 0.0
2015-Oct-26 03:33N 37°58' E 023°34'0 0.0
2015-Oct-26 02:33N 37°58' E 023°34'0 0.0
2015-Oct-26 01:34N 37°58' E 023°34'0 0.0
2015-Oct-26 00:34N 37°58' E 023°34'0 0.0
2015-Oct-25 23:33N 37°58' E 023°34'0 0.0
2015-Oct-25 22:33N 37°58' E 023°34'0 0.0
2015-Oct-25 21:33N 37°58' E 023°34'0 0.0
2015-Oct-25 20:33N 37°58' E 023°34'0 0.0
2015-Oct-25 19:33N 37°58' E 023°34'0 0.0
2015-Oct-25 18:33N 37°58' E 023°34'0 0.0
2015-Oct-25 17:33N 37°58' E 023°34'0 0.0
2015-Oct-25 16:34N 37°58' E 023°34'0 0.0
2015-Oct-25 15:33N 37°58' E 023°34'0 0.0
2015-Oct-25 14:33N 37°58' E 023°34'0 0.0
2015-Oct-25 13:34N 37°58' E 023°34'0 0.0
2015-Oct-25 12:33N 37°58' E 023°34'0 0.0
2015-Oct-25 11:33N 37°58' E 023°34'0 0.0
2015-Oct-25 10:33N 37°58' E 023°34'0 0.0
2015-Oct-25 09:33N 37°58' E 023°34'0 0.0
2015-Oct-25 08:33N 37°58' E 023°34'0 0.0
2015-Oct-25 07:33N 37°58' E 023°34'0 0.0
2015-Oct-25 06:33N 37°58' E 023°34'0 0.0
2015-Oct-25 05:33N 37°58' E 023°34'0 0.0
2015-Oct-25 04:33N 37°58' E 023°34'0 0.0
2015-Oct-25 03:33N 37°58' E 023°34'0 0.0
2015-Oct-25 02:33N 37°58' E 023°34'0 0.0
2015-Oct-25 01:33N 37°58' E 023°34'0 0.0
2015-Oct-25 00:33N 37°58' E 023°34'0 0.0
2015-Oct-24 23:33N 37°58' E 023°34'0 0.0
2015-Oct-24 22:33N 37°58' E 023°34'0 0.0
2015-Oct-24 21:33N 37°58' E 023°34'0 0.0
2015-Oct-24 20:33N 37°58' E 023°34'0 0.0
2015-Oct-24 19:33N 37°58' E 023°34'0 0.0
2015-Oct-24 18:33N 37°58' E 023°34'0 0.0
2015-Oct-24 17:33N 37°58' E 023°34'0 0.0
2015-Oct-24 16:33N 37°58' E 023°34'0 0.0
2015-Oct-24 15:33N 37°58' E 023°34'0 0.0
2015-Oct-24 14:33N 37°58' E 023°34'0 0.0
2015-Oct-24 13:33N 37°58' E 023°34'0 0.0
2015-Oct-24 12:33N 37°58' E 023°34'0 0.0
2015-Oct-24 11:33N 37°58' E 023°34'0 0.0
2015-Oct-24 10:33N 37°58' E 023°34'0 0.0
2015-Oct-24 09:33N 37°58' E 023°34'0 0.0
2015-Oct-24 08:33N 37°58' E 023°34'0 0.0
2015-Oct-24 07:34N 37°58' E 023°34'0 0.0
2015-Oct-24 06:33N 37°58' E 023°34'0 0.0
2015-Oct-24 05:33N 37°58' E 023°34'0 0.0
2015-Oct-24 04:33N 37°58' E 023°34'0 0.0
2015-Oct-24 03:33N 37°58' E 023°34'0 0.0
2015-Oct-24 02:33N 37°58' E 023°34'0 0.0
2015-Oct-24 01:33N 37°58' E 023°34'0 0.0
2015-Oct-24 00:33N 37°58' E 023°34'0 0.0
2015-Oct-23 23:33N 37°58' E 023°34'0 0.0
2015-Oct-23 22:34N 37°58' E 023°34'0 0.0
2015-Oct-23 21:33N 37°58' E 023°34'0 0.0
2015-Oct-23 20:33N 37°58' E 023°34'0 0.0
2015-Oct-23 19:33N 37°58' E 023°34'0 0.0
2015-Oct-23 18:33N 37°58' E 023°34'0 0.0
2015-Oct-23 17:33N 37°58' E 023°34'0 0.0
2015-Oct-23 16:33N 37°58' E 023°34'0 0.0
2015-Oct-23 15:33N 37°58' E 023°34'0 0.0
2015-Oct-23 14:33N 37°58' E 023°34'0 0.0
2015-Oct-23 13:33N 37°58' E 023°34'0 0.0
2015-Oct-23 12:33N 37°58' E 023°34'  

Dump ship's entire track history